sensor_id;sensor_type;location;lat;lon;timestamp;pressure;altitude;pressure_sealevel;temperature;humidity
36454;BME280;22478;51.740;-1.314;2022-08-19T00:01:54;99980.52;;;17.06;100.00
36454;BME280;22478;51.740;-1.314;2022-08-19T00:04:25;99988.84;;;14.06;100.00
36454;BME280;22478;51.740;-1.314;2022-08-19T00:06:53;99997.55;;;14.12;100.00
36454;BME280;22478;51.740;-1.314;2022-08-19T00:09:23;99999.57;;;14.47;100.00
36454;BME280;22478;51.740;-1.314;2022-08-19T00:11:51;100002.88;;;14.61;100.00
36454;BME280;22478;51.740;-1.314;2022-08-19T00:14:19;99996.08;;;15.74;100.00
36454;BME280;22478;51.740;-1.314;2022-08-19T00:16:47;99986.76;;;17.55;100.00
36454;BME280;22478;51.740;-1.314;2022-08-19T00:19:16;99989.69;;;17.15;100.00
36454;BME280;22478;51.740;-1.314;2022-08-19T00:21:43;99992.83;;;16.67;100.00
36454;BME280;22478;51.740;-1.314;2022-08-19T00:24:13;99989.21;;;16.37;100.00
36454;BME280;22478;51.740;-1.314;2022-08-19T00:26:42;99989.33;;;17.24;100.00
36454;BME280;22478;51.740;-1.314;2022-08-19T00:29:11;99986.04;;;18.25;100.00
36454;BME280;22478;51.740;-1.314;2022-08-19T00:31:39;99983.83;;;18.61;100.00
36454;BME280;22478;51.740;-1.314;2022-08-19T00:34:07;99990.13;;;15.85;100.00
36454;BME280;22478;51.740;-1.314;2022-08-19T00:36:34;99989.90;;;16.39;100.00
36454;BME280;22478;51.740;-1.314;2022-08-19T00:39:02;99997.46;;;15.59;100.00
36454;BME280;22478;51.740;-1.314;2022-08-19T00:41:30;99988.10;;;17.09;100.00
36454;BME280;22478;51.740;-1.314;2022-08-19T00:44:00;99991.33;;;15.22;100.00
36454;BME280;22478;51.740;-1.314;2022-08-19T00:46:28;99979.05;;;16.38;100.00
36454;BME280;22478;51.740;-1.314;2022-08-19T00:48:56;99984.42;;;15.08;100.00
36454;BME280;22478;51.740;-1.314;2022-08-19T00:51:25;99975.27;;;16.28;100.00
36454;BME280;22478;51.740;-1.314;2022-08-19T00:53:55;99976.68;;;16.20;100.00
36454;BME280;22478;51.740;-1.314;2022-08-19T00:56:24;99976.68;;;16.10;100.00
36454;BME280;22478;51.740;-1.314;2022-08-19T00:58:52;99987.16;;;14.67;100.00
36454;BME280;22478;51.740;-1.314;2022-08-19T01:01:21;99984.65;;;14.97;100.00
36454;BME280;22478;51.740;-1.314;2022-08-19T01:03:48;99971.59;;;17.48;100.00
36454;BME280;22478;51.740;-1.314;2022-08-19T01:06:16;99979.64;;;16.31;100.00
36454;BME280;22478;51.740;-1.314;2022-08-19T01:08:43;99972.66;;;17.87;100.00
36454;BME280;22478;51.740;-1.314;2022-08-19T01:11:10;99970.78;;;17.36;100.00
36454;BME280;22478;51.740;-1.314;2022-08-19T01:13:39;99966.64;;;16.87;100.00
36454;BME280;22478;51.740;-1.314;2022-08-19T01:16:09;99965.67;;;16.24;100.00
36454;BME280;22478;51.740;-1.314;2022-08-19T01:18:40;99968.23;;;17.01;100.00
36454;BME280;22478;51.740;-1.314;2022-08-19T01:21:12;99966.38;;;17.46;100.00
36454;BME280;22478;51.740;-1.314;2022-08-19T01:23:43;99957.58;;;17.67;100.00
36454;BME280;22478;51.740;-1.314;2022-08-19T01:26:13;99959.13;;;17.46;100.00
36454;BME280;22478;51.740;-1.314;2022-08-19T01:28:43;99951.86;;;17.73;100.00
36454;BME280;22478;51.740;-1.314;2022-08-19T01:31:15;99949.95;;;17.56;100.00
36454;BME280;22478;51.740;-1.314;2022-08-19T01:33:42;99952.48;;;18.42;100.00
36454;BME280;22478;51.740;-1.314;2022-08-19T01:36:13;99959.06;;;17.99;100.00
36454;BME280;22478;51.740;-1.314;2022-08-19T01:38:42;99959.52;;;18.49;100.00
36454;BME280;22478;51.740;-1.314;2022-08-19T01:41:11;99961.19;;;18.74;100.00
36454;BME280;22478;51.740;-1.314;2022-08-19T01:43:39;99960.56;;;17.73;100.00
36454;BME280;22478;51.740;-1.314;2022-08-19T01:46:07;99965.52;;;15.80;100.00
36454;BME280;22478;51.740;-1.314;2022-08-19T01:48:36;99963.37;;;17.61;100.00
36454;BME280;22478;51.740;-1.314;2022-08-19T01:51:05;99962.00;;;18.31;100.00
36454;BME280;22478;51.740;-1.314;2022-08-19T01:53:32;99966.87;;;18.23;100.00
36454;BME280;22478;51.740;-1.314;2022-08-19T01:56:00;99972.47;;;17.73;100.00
36454;BME280;22478;51.740;-1.314;2022-08-19T01:58:30;99972.93;;;17.23;100.00
36454;BME280;22478;51.740;-1.314;2022-08-19T02:00:58;99970.04;;;17.06;100.00
36454;BME280;22478;51.740;-1.314;2022-08-19T02:03:26;99972.43;;;17.80;100.00
36454;BME280;22478;51.740;-1.314;2022-08-19T02:05:57;99980.78;;;17.51;100.00
36454;BME280;22478;51.740;-1.314;2022-08-19T02:08:26;99983.42;;;17.09;100.00
36454;BME280;22478;51.740;-1.314;2022-08-19T02:10:54;99987.16;;;15.45;100.00
36454;BME280;22478;51.740;-1.314;2022-08-19T02:13:26;99982.26;;;16.09;100.00
36454;BME280;22478;51.740;-1.314;2022-08-19T02:15:54;99985.03;;;15.83;100.00
36454;BME280;22478;51.740;-1.314;2022-08-19T02:18:21;99992.68;;;14.71;100.00
36454;BME280;22478;51.740;-1.314;2022-08-19T02:20:48;100004.59;;;13.66;100.00
36454;BME280;22478;51.740;-1.314;2022-08-19T02:23:16;99998.93;;;14.55;100.00
36454;BME280;22478;51.740;-1.314;2022-08-19T02:25:47;99997.08;;;15.02;100.00
36454;BME280;22478;51.740;-1.314;2022-08-19T02:28:15;99987.39;;;16.33;100.00
36454;BME280;22478;51.740;-1.314;2022-08-19T02:30:42;99987.60;;;16.58;100.00
36454;BME280;22478;51.740;-1.314;2022-08-19T02:33:10;99986.63;;;17.41;100.00
36454;BME280;22478;51.740;-1.314;2022-08-19T02:35:38;99987.39;;;17.41;100.00
36454;BME280;22478;51.740;-1.314;2022-08-19T02:38:07;99986.65;;;17.81;100.00
36454;BME280;22478;51.740;-1.314;2022-08-19T02:40:35;99987.85;;;17.31;100.00
36454;BME280;22478;51.740;-1.314;2022-08-19T02:43:03;99995.77;;;15.19;100.00
36454;BME280;22478;51.740;-1.314;2022-08-19T02:45:32;99998.83;;;14.13;100.00
36454;BME280;22478;51.740;-1.314;2022-08-19T02:47:59;99998.03;;;15.22;100.00
36454;BME280;22478;51.740;-1.314;2022-08-19T02:50:27;99997.93;;;14.08;100.00
36454;BME280;22478;51.740;-1.314;2022-08-19T02:52:54;100002.26;;;12.74;100.00
36454;BME280;22478;51.740;-1.314;2022-08-19T02:55:22;100008.11;;;14.09;100.00
36454;BME280;22478;51.740;-1.314;2022-08-19T02:57:50;100006.38;;;13.03;100.00
36454;BME280;22478;51.740;-1.314;2022-08-19T03:00:17;100003.03;;;15.04;100.00
36454;BME280;22478;51.740;-1.314;2022-08-19T03:02:44;100004.37;;;13.88;100.00
36454;BME280;22478;51.740;-1.314;2022-08-19T03:05:12;100012.69;;;12.50;100.00
36454;BME280;22478;51.740;-1.314;2022-08-19T03:07:40;100012.85;;;13.12;100.00
36454;BME280;22478;51.740;-1.314;2022-08-19T03:10:07;100002.84;;;13.48;100.00
36454;BME280;22478;51.740;-1.314;2022-08-19T03:12:36;100007.94;;;11.78;100.00
36454;BME280;22478;51.740;-1.314;2022-08-19T03:15:06;100001.94;;;14.09;100.00
36454;BME280;22478;51.740;-1.314;2022-08-19T03:17:35;99996.99;;;14.09;100.00
36454;BME280;22478;51.740;-1.314;2022-08-19T03:20:03;99989.77;;;15.50;100.00
36454;BME280;22478;51.740;-1.314;2022-08-19T03:22:30;99994.35;;;15.23;100.00
36454;BME280;22478;51.740;-1.314;2022-08-19T03:24:58;99985.99;;;17.27;100.00
36454;BME280;22478;51.740;-1.314;2022-08-19T03:27:26;99992.71;;;16.46;100.00
36454;BME280;22478;51.740;-1.314;2022-08-19T03:29:53;99998.76;;;15.88;100.00
36454;BME280;22478;51.740;-1.314;2022-08-19T03:32:21;99990.46;;;16.82;100.00
36454;BME280;22478;51.740;-1.314;2022-08-19T03:34:48;100001.54;;;14.72;100.00
36454;BME280;22478;51.740;-1.314;2022-08-19T03:37:15;99999.96;;;15.51;100.00
36454;BME280;22478;51.740;-1.314;2022-08-19T03:39:42;100011.81;;;14.72;100.00
36454;BME280;22478;51.740;-1.314;2022-08-19T03:42:10;100012.67;;;13.92;100.00
36454;BME280;22478;51.740;-1.314;2022-08-19T03:44:38;100014.86;;;15.85;100.00
36454;BME280;22478;51.740;-1.314;2022-08-19T03:47:05;100020.22;;;14.89;100.00
36454;BME280;22478;51.740;-1.314;2022-08-19T03:49:32;100026.54;;;14.64;100.00
36454;BME280;22478;51.740;-1.314;2022-08-19T03:52:00;100029.97;;;13.98;100.00
36454;BME280;22478;51.740;-1.314;2022-08-19T03:54:27;100025.15;;;15.21;100.00
36454;BME280;22478;51.740;-1.314;2022-08-19T03:56:56;100026.40;;;14.69;100.00
36454;BME280;22478;51.740;-1.314;2022-08-19T03:59:27;100028.71;;;13.13;100.00
36454;BME280;22478;51.740;-1.314;2022-08-19T04:01:58;100041.98;;;11.25;100.00
36454;BME280;22478;51.740;-1.314;2022-08-19T04:04:27;100044.64;;;12.60;100.00
36454;BME280;22478;51.740;-1.314;2022-08-19T04:06:55;100026.35;;;13.22;100.00
36454;BME280;22478;51.740;-1.314;2022-08-19T04:09:23;100027.03;;;13.50;100.00
36454;BME280;22478;51.740;-1.314;2022-08-19T04:11:54;100029.28;;;12.75;100.00
36454;BME280;22478;51.740;-1.314;2022-08-19T04:14:25;100021.03;;;14.11;100.00
36454;BME280;22478;51.740;-1.314;2022-08-19T04:16:53;100020.86;;;14.70;100.00
36454;BME280;22478;51.740;-1.314;2022-08-19T04:19:21;100027.08;;;13.07;100.00
36454;BME280;22478;51.740;-1.314;2022-08-19T04:21:51;100030.20;;;13.93;100.00
36454;BME280;22478;51.740;-1.314;2022-08-19T04:24:20;100032.10;;;13.46;100.00
36454;BME280;22478;51.740;-1.314;2022-08-19T04:26:48;100033.44;;;14.23;100.00
36454;BME280;22478;51.740;-1.314;2022-08-19T04:29:17;100036.67;;;12.57;100.00
36454;BME280;22478;51.740;-1.314;2022-08-19T04:31:45;100042.61;;;11.55;100.00
36454;BME280;22478;51.740;-1.314;2022-08-19T04:34:14;100049.39;;;11.56;100.00
36454;BME280;22478;51.740;-1.314;2022-08-19T04:36:45;100047.84;;;11.59;100.00
36454;BME280;22478;51.740;-1.314;2022-08-19T04:39:15;100041.87;;;12.41;100.00
36454;BME280;22478;51.740;-1.314;2022-08-19T04:41:43;100046.72;;;13.38;100.00
36454;BME280;22478;51.740;-1.314;2022-08-19T04:44:11;100048.63;;;11.45;100.00
36454;BME280;22478;51.740;-1.314;2022-08-19T04:46:39;100057.23;;;10.09;100.00
36454;BME280;22478;51.740;-1.314;2022-08-19T04:49:07;100051.99;;;11.81;100.00
36454;BME280;22478;51.740;-1.314;2022-08-19T04:51:35;100058.63;;;12.18;100.00
36454;BME280;22478;51.740;-1.314;2022-08-19T04:54:03;100064.81;;;11.20;100.00
36454;BME280;22478;51.740;-1.314;2022-08-19T04:56:31;100071.42;;;11.18;100.00
36454;BME280;22478;51.740;-1.314;2022-08-19T04:58:59;100071.87;;;11.30;100.00
36454;BME280;22478;51.740;-1.314;2022-08-19T05:01:28;100080.39;;;9.34;100.00
36454;BME280;22478;51.740;-1.314;2022-08-19T05:03:56;100080.58;;;10.18;100.00
36454;BME280;22478;51.740;-1.314;2022-08-19T05:06:23;100081.25;;;9.97;100.00
36454;BME280;22478;51.740;-1.314;2022-08-19T05:08:51;100075.21;;;11.34;100.00
36454;BME280;22478;51.740;-1.314;2022-08-19T05:11:24;100077.09;;;11.68;100.00
36454;BME280;22478;51.740;-1.314;2022-08-19T05:13:52;100083.42;;;9.94;100.00
36454;BME280;22478;51.740;-1.314;2022-08-19T05:16:21;100082.15;;;11.05;100.00
36454;BME280;22478;51.740;-1.314;2022-08-19T05:18:49;100088.02;;;10.46;100.00
36454;BME280;22478;51.740;-1.314;2022-08-19T05:21:18;100079.33;;;12.07;100.00
36454;BME280;22478;51.740;-1.314;2022-08-19T05:23:46;100090.35;;;10.79;100.00
36454;BME280;22478;51.740;-1.314;2022-08-19T05:26:14;100088.42;;;11.54;100.00
36454;BME280;22478;51.740;-1.314;2022-08-19T05:28:41;100097.27;;;10.86;100.00
36454;BME280;22478;51.740;-1.314;2022-08-19T05:31:08;100099.41;;;10.57;100.00
36454;BME280;22478;51.740;-1.314;2022-08-19T05:33:36;100097.44;;;10.41;100.00
36454;BME280;22478;51.740;-1.314;2022-08-19T05:36:04;100099.89;;;9.85;100.00
36454;BME280;22478;51.740;-1.314;2022-08-19T05:38:31;100094.94;;;10.58;100.00
36454;BME280;22478;51.740;-1.314;2022-08-19T05:40:58;100100.52;;;10.76;100.00
36454;BME280;22478;51.740;-1.314;2022-08-19T05:43:25;100095.16;;;11.47;100.00
36454;BME280;22478;51.740;-1.314;2022-08-19T05:45:53;100107.92;;;9.94;100.00
36454;BME280;22478;51.740;-1.314;2022-08-19T05:48:19;100112.75;;;9.26;100.00
36454;BME280;22478;51.740;-1.314;2022-08-19T05:50:46;100110.38;;;11.08;100.00
36454;BME280;22478;51.740;-1.314;2022-08-19T05:53:13;100117.96;;;10.38;100.00
36454;BME280;22478;51.740;-1.314;2022-08-19T05:55:40;100120.52;;;11.55;100.00
36454;BME280;22478;51.740;-1.314;2022-08-19T05:58:08;100128.27;;;9.28;100.00
36454;BME280;22478;51.740;-1.314;2022-08-19T06:00:36;100127.86;;;11.27;100.00
36454;BME280;22478;51.740;-1.314;2022-08-19T06:03:03;100131.89;;;9.82;100.00
36454;BME280;22478;51.740;-1.314;2022-08-19T06:05:31;100127.81;;;12.05;100.00
36454;BME280;22478;51.740;-1.314;2022-08-19T06:07:59;100132.30;;;10.62;100.00
36454;BME280;22478;51.740;-1.314;2022-08-19T06:10:26;100136.01;;;10.05;100.00
36454;BME280;22478;51.740;-1.314;2022-08-19T06:12:54;100143.25;;;10.21;100.00
36454;BME280;22478;51.740;-1.314;2022-08-19T06:15:22;100144.72;;;11.15;100.00
36454;BME280;22478;51.740;-1.314;2022-08-19T06:17:49;100149.03;;;10.97;100.00
36454;BME280;22478;51.740;-1.314;2022-08-19T06:20:16;100154.60;;;9.59;100.00
36454;BME280;22478;51.740;-1.314;2022-08-19T06:22:46;100155.77;;;9.29;100.00
36454;BME280;22478;51.740;-1.314;2022-08-19T06:25:14;100147.05;;;10.70;100.00
36454;BME280;22478;51.740;-1.314;2022-08-19T06:27:43;100146.91;;;10.54;100.00
36454;BME280;22478;51.740;-1.314;2022-08-19T06:30:11;100152.40;;;9.80;100.00
36454;BME280;22478;51.740;-1.314;2022-08-19T06:32:38;100154.41;;;9.70;100.00
36454;BME280;22478;51.740;-1.314;2022-08-19T06:35:07;100161.28;;;9.06;100.00
36454;BME280;22478;51.740;-1.314;2022-08-19T06:37:34;100160.80;;;10.92;100.00
36454;BME280;22478;51.740;-1.314;2022-08-19T06:40:03;100168.65;;;9.26;100.00
36454;BME280;22478;51.740;-1.314;2022-08-19T06:42:30;100166.97;;;9.43;100.00
36454;BME280;22478;51.740;-1.314;2022-08-19T06:44:57;100167.02;;;12.00;100.00
36454;BME280;22478;51.740;-1.314;2022-08-19T06:47:25;100165.66;;;10.00;100.00
36454;BME280;22478;51.740;-1.314;2022-08-19T06:49:53;100168.90;;;10.61;100.00
36454;BME280;22478;51.740;-1.314;2022-08-19T06:52:21;100173.09;;;9.06;100.00
36454;BME280;22478;51.740;-1.314;2022-08-19T06:54:48;100170.10;;;8.55;100.00
36454;BME280;22478;51.740;-1.314;2022-08-19T06:57:15;100174.12;;;8.97;100.00
36454;BME280;22478;51.740;-1.314;2022-08-19T06:59:42;100174.22;;;8.75;100.00
36454;BME280;22478;51.740;-1.314;2022-08-19T07:02:09;100176.80;;;9.37;100.00
36454;BME280;22478;51.740;-1.314;2022-08-19T07:04:38;100170.41;;;9.60;100.00
36454;BME280;22478;51.740;-1.314;2022-08-19T07:07:08;100175.91;;;9.81;100.00
36454;BME280;22478;51.740;-1.314;2022-08-19T07:09:37;100184.06;;;10.03;100.00
36454;BME280;22478;51.740;-1.314;2022-08-19T07:12:08;100184.66;;;9.53;100.00
36454;BME280;22478;51.740;-1.314;2022-08-19T07:14:36;100175.83;;;11.18;100.00
36454;BME280;22478;51.740;-1.314;2022-08-19T07:17:07;100185.96;;;9.76;100.00
36454;BME280;22478;51.740;-1.314;2022-08-19T07:19:36;100183.57;;;10.01;100.00
36454;BME280;22478;51.740;-1.314;2022-08-19T07:22:05;100190.05;;;10.02;100.00
36454;BME280;22478;51.740;-1.314;2022-08-19T07:24:34;100184.10;;;9.41;100.00
36454;BME280;22478;51.740;-1.314;2022-08-19T07:27:04;100189.85;;;8.95;100.00
36454;BME280;22478;51.740;-1.314;2022-08-19T07:29:34;100187.54;;;10.30;100.00
36454;BME280;22478;51.740;-1.314;2022-08-19T07:32:03;100194.73;;;9.67;100.00
36454;BME280;22478;51.740;-1.314;2022-08-19T07:34:31;100197.75;;;10.13;100.00
36454;BME280;22478;51.740;-1.314;2022-08-19T07:36:58;100202.38;;;9.38;100.00
36454;BME280;22478;51.740;-1.314;2022-08-19T07:39:29;100200.00;;;10.05;100.00
36454;BME280;22478;51.740;-1.314;2022-08-19T07:41:58;100201.93;;;10.61;100.00
36454;BME280;22478;51.740;-1.314;2022-08-19T07:44:26;100198.50;;;9.98;100.00
36454;BME280;22478;51.740;-1.314;2022-08-19T07:46:55;100202.78;;;10.31;100.00
36454;BME280;22478;51.740;-1.314;2022-08-19T07:49:23;100195.63;;;10.21;100.00
36454;BME280;22478;51.740;-1.314;2022-08-19T07:51:52;100199.00;;;11.47;100.00
36454;BME280;22478;51.740;-1.314;2022-08-19T07:54:22;100207.14;;;9.91;100.00
36454;BME280;22478;51.740;-1.314;2022-08-19T07:56:49;100209.43;;;8.90;100.00
36454;BME280;22478;51.740;-1.314;2022-08-19T07:59:18;100205.38;;;11.34;100.00
36454;BME280;22478;51.740;-1.314;2022-08-19T08:01:46;100210.29;;;10.03;100.00
36454;BME280;22478;51.740;-1.314;2022-08-19T08:04:15;100217.85;;;10.26;100.00
36454;BME280;22478;51.740;-1.314;2022-08-19T08:06:42;100220.72;;;10.05;100.00
36454;BME280;22478;51.740;-1.314;2022-08-19T08:09:11;100220.94;;;10.10;100.00
36454;BME280;22478;51.740;-1.314;2022-08-19T08:11:40;100226.09;;;10.30;100.00
36454;BME280;22478;51.740;-1.314;2022-08-19T08:14:08;100226.11;;;11.05;100.00
36454;BME280;22478;51.740;-1.314;2022-08-19T08:16:37;100225.10;;;12.12;100.00
36454;BME280;22478;51.740;-1.314;2022-08-19T08:19:05;100223.85;;;12.38;100.00
36454;BME280;22478;51.740;-1.314;2022-08-19T08:21:33;100215.71;;;13.33;100.00
36454;BME280;22478;51.740;-1.314;2022-08-19T08:24:01;100226.24;;;12.16;100.00
36454;BME280;22478;51.740;-1.314;2022-08-19T08:26:28;100223.65;;;13.57;100.00
36454;BME280;22478;51.740;-1.314;2022-08-19T08:28:56;100217.32;;;13.95;100.00
36454;BME280;22478;51.740;-1.314;2022-08-19T08:31:24;100219.01;;;14.18;100.00
36454;BME280;22478;51.740;-1.314;2022-08-19T08:33:51;100221.66;;;13.64;100.00
36454;BME280;22478;51.740;-1.314;2022-08-19T08:36:19;100219.34;;;15.64;92.66
36454;BME280;22478;51.740;-1.314;2022-08-19T08:38:46;100223.34;;;13.22;99.50
36454;BME280;22478;51.740;-1.314;2022-08-19T08:41:21;100219.56;;;13.59;93.43
36454;BME280;22478;51.740;-1.314;2022-08-19T08:43:51;100221.80;;;14.68;92.56
36454;BME280;22478;51.740;-1.314;2022-08-19T08:46:23;100229.13;;;13.77;95.17
36454;BME280;22478;51.740;-1.314;2022-08-19T08:48:56;100225.68;;;13.76;94.45
36454;BME280;22478;51.740;-1.314;2022-08-19T08:51:28;100219.79;;;15.12;86.39
36454;BME280;22478;51.740;-1.314;2022-08-19T08:53:57;100219.37;;;14.98;86.63
36454;BME280;22478;51.740;-1.314;2022-08-19T08:56:24;100216.83;;;17.08;78.57
36454;BME280;22478;51.740;-1.314;2022-08-19T08:58:58;100211.68;;;18.58;70.27
36454;BME280;22478;51.740;-1.314;2022-08-19T09:01:27;100214.69;;;16.54;71.92
36454;BME280;22478;51.740;-1.314;2022-08-19T09:03:54;100223.90;;;15.11;79.45
36454;BME280;22478;51.740;-1.314;2022-08-19T09:06:25;100231.92;;;15.75;73.98
36454;BME280;22478;51.740;-1.314;2022-08-19T09:09:01;100244.15;;;13.28;78.70
36454;BME280;22478;51.740;-1.314;2022-08-19T09:11:43;100237.23;;;17.55;68.25
36454;BME280;22478;51.740;-1.314;2022-08-19T09:14:26;100246.07;;;14.65;72.40
36454;BME280;22478;51.740;-1.314;2022-08-19T09:16:59;100241.71;;;15.12;72.01
36454;BME280;22478;51.740;-1.314;2022-08-19T09:19:27;100239.56;;;15.82;73.31
36454;BME280;22478;51.740;-1.314;2022-08-19T09:21:54;100244.29;;;15.93;71.74
36454;BME280;22478;51.740;-1.314;2022-08-19T09:24:22;100243.11;;;15.96;70.25
36454;BME280;22478;51.740;-1.314;2022-08-19T09:26:49;100236.97;;;17.15;63.92
36454;BME280;22478;51.740;-1.314;2022-08-19T09:29:16;100231.89;;;15.45;71.07
36454;BME280;22478;51.740;-1.314;2022-08-19T09:31:43;100232.23;;;17.52;64.64
36454;BME280;22478;51.740;-1.314;2022-08-19T09:34:10;100237.48;;;17.78;61.01
36454;BME280;22478;51.740;-1.314;2022-08-19T09:36:37;100254.53;;;15.99;63.78
36454;BME280;22478;51.740;-1.314;2022-08-19T09:39:05;100248.30;;;15.30;61.34
36454;BME280;22478;51.740;-1.314;2022-08-19T09:41:32;100244.49;;;18.73;55.62
36454;BME280;22478;51.740;-1.314;2022-08-19T09:44:00;100248.94;;;17.31;54.35
36454;BME280;22478;51.740;-1.314;2022-08-19T09:46:29;100254.69;;;16.72;56.07
36454;BME280;22478;51.740;-1.314;2022-08-19T09:48:59;100252.08;;;16.07;59.46
36454;BME280;22478;51.740;-1.314;2022-08-19T09:51:27;100251.15;;;15.08;58.60
36454;BME280;22478;51.740;-1.314;2022-08-19T09:54:00;100249.86;;;15.27;57.91
36454;BME280;22478;51.740;-1.314;2022-08-19T09:56:28;100251.28;;;15.81;56.01
36454;BME280;22478;51.740;-1.314;2022-08-19T09:58:57;100252.24;;;14.88;59.28
36454;BME280;22478;51.740;-1.314;2022-08-19T10:01:28;100248.49;;;14.54;60.63
36454;BME280;22478;51.740;-1.314;2022-08-19T10:03:57;100241.25;;;15.69;57.48
36454;BME280;22478;51.740;-1.314;2022-08-19T10:06:28;100240.58;;;19.18;49.72
36454;BME280;22478;51.740;-1.314;2022-08-19T10:08:56;100246.42;;;16.70;50.29
36454;BME280;22478;51.740;-1.314;2022-08-19T10:11:23;100249.79;;;16.31;50.13
36454;BME280;22478;51.740;-1.314;2022-08-19T10:13:51;100247.14;;;17.42;49.82
36454;BME280;22478;51.740;-1.314;2022-08-19T10:16:21;100250.11;;;17.12;49.82
36454;BME280;22478;51.740;-1.314;2022-08-19T10:18:48;100250.47;;;14.85;53.62
36454;BME280;22478;51.740;-1.314;2022-08-19T10:21:18;100251.24;;;15.55;50.67
36454;BME280;22478;51.740;-1.314;2022-08-19T10:23:49;100247.56;;;17.11;50.95
36454;BME280;22478;51.740;-1.314;2022-08-19T10:26:19;100243.13;;;18.10;49.21
36454;BME280;22478;51.740;-1.314;2022-08-19T10:28:46;100235.16;;;17.81;46.74
36454;BME280;22478;51.740;-1.314;2022-08-19T10:31:16;100240.08;;;17.56;45.43
36454;BME280;22478;51.740;-1.314;2022-08-19T10:33:43;100241.70;;;18.37;46.32
36454;BME280;22478;51.740;-1.314;2022-08-19T10:36:13;100236.69;;;19.01;42.81
36454;BME280;22478;51.740;-1.314;2022-08-19T10:38:41;100241.17;;;17.62;44.67
36454;BME280;22478;51.740;-1.314;2022-08-19T10:41:10;100242.63;;;18.88;41.85
36454;BME280;22478;51.740;-1.314;2022-08-19T10:43:38;100249.19;;;18.78;43.97
36454;BME280;22478;51.740;-1.314;2022-08-19T10:46:06;100243.71;;;19.71;41.31
36454;BME280;22478;51.740;-1.314;2022-08-19T10:48:33;100243.82;;;18.89;40.97
36454;BME280;22478;51.740;-1.314;2022-08-19T10:51:01;100242.27;;;21.19;40.92
36454;BME280;22478;51.740;-1.314;2022-08-19T10:53:28;100243.34;;;17.87;41.40
36454;BME280;22478;51.740;-1.314;2022-08-19T10:55:55;100250.95;;;17.34;42.19
36454;BME280;22478;51.740;-1.314;2022-08-19T10:58:23;100242.13;;;19.27;40.17
36454;BME280;22478;51.740;-1.314;2022-08-19T11:00:52;100242.52;;;18.62;41.04
36454;BME280;22478;51.740;-1.314;2022-08-19T11:03:19;100242.66;;;18.58;42.17
36454;BME280;22478;51.740;-1.314;2022-08-19T11:05:57;100237.33;;;19.14;41.13
36454;BME280;22478;51.740;-1.314;2022-08-19T11:08:24;100228.56;;;19.42;40.55
36454;BME280;22478;51.740;-1.314;2022-08-19T11:10:52;100229.58;;;21.28;39.34
36454;BME280;22478;51.740;-1.314;2022-08-19T11:13:20;100237.15;;;19.55;40.94
36454;BME280;22478;51.740;-1.314;2022-08-19T11:15:47;100228.31;;;19.29;39.80
36454;BME280;22478;51.740;-1.314;2022-08-19T11:18:14;100231.29;;;19.94;39.09
36454;BME280;22478;51.740;-1.314;2022-08-19T11:20:41;100236.66;;;20.61;39.23
36454;BME280;22478;51.740;-1.314;2022-08-19T11:23:09;100228.26;;;20.69;36.41
36454;BME280;22478;51.740;-1.314;2022-08-19T11:25:38;100221.42;;;23.51;34.22
36454;BME280;22478;51.740;-1.314;2022-08-19T11:28:06;100222.67;;;20.26;35.14
36454;BME280;22478;51.740;-1.314;2022-08-19T11:30:32;100224.53;;;20.31;38.00
36454;BME280;22478;51.740;-1.314;2022-08-19T11:32:59;100214.41;;;24.05;31.98
36454;BME280;22478;51.740;-1.314;2022-08-19T11:35:27;100205.90;;;26.67;29.65
36454;BME280;22478;51.740;-1.314;2022-08-19T11:37:54;100218.01;;;19.39;35.21
36454;BME280;22478;51.740;-1.314;2022-08-19T11:40:22;100212.16;;;18.60;37.73
36454;BME280;22478;51.740;-1.314;2022-08-19T11:42:49;100224.23;;;20.67;37.06
36454;BME280;22478;51.740;-1.314;2022-08-19T11:45:16;100220.02;;;22.05;36.81
36454;BME280;22478;51.740;-1.314;2022-08-19T11:47:44;100217.37;;;21.10;35.90
36454;BME280;22478;51.740;-1.314;2022-08-19T11:50:11;100215.66;;;21.15;36.48
36454;BME280;22478;51.740;-1.314;2022-08-19T11:52:38;100214.95;;;20.83;36.14
36454;BME280;22478;51.740;-1.314;2022-08-19T11:55:06;100212.76;;;23.21;34.71
36454;BME280;22478;51.740;-1.314;2022-08-19T11:57:33;100217.60;;;20.94;37.46
36454;BME280;22478;51.740;-1.314;2022-08-19T12:00:01;100220.55;;;19.43;40.92
36454;BME280;22478;51.740;-1.314;2022-08-19T12:02:28;100208.61;;;23.85;34.39
36454;BME280;22478;51.740;-1.314;2022-08-19T12:04:56;100214.26;;;22.51;34.50
36454;BME280;22478;51.740;-1.314;2022-08-19T12:07:23;100215.17;;;22.69;33.63
36454;BME280;22478;51.740;-1.314;2022-08-19T12:09:51;100219.30;;;24.87;32.60
36454;BME280;22478;51.740;-1.314;2022-08-19T12:12:18;100211.16;;;24.37;31.39
36454;BME280;22478;51.740;-1.314;2022-08-19T12:14:46;100206.96;;;26.51;27.85
36454;BME280;22478;51.740;-1.314;2022-08-19T12:17:13;100203.86;;;22.27;32.13
36454;BME280;22478;51.740;-1.314;2022-08-19T12:19:40;100200.97;;;22.91;34.41
36454;BME280;22478;51.740;-1.314;2022-08-19T12:22:07;100223.46;;;17.76;42.36
36454;BME280;22478;51.740;-1.314;2022-08-19T12:24:35;100230.87;;;17.96;45.66
36454;BME280;22478;51.740;-1.314;2022-08-19T12:27:03;100227.07;;;18.68;44.76
36454;BME280;22478;51.740;-1.314;2022-08-19T12:29:30;100225.31;;;19.28;44.73
36454;BME280;22478;51.740;-1.314;2022-08-19T12:31:58;100224.96;;;20.96;40.18
36454;BME280;22478;51.740;-1.314;2022-08-19T12:34:26;100230.31;;;17.89;43.62
36454;BME280;22478;51.740;-1.314;2022-08-19T12:36:53;100235.59;;;18.58;43.38
36454;BME280;22478;51.740;-1.314;2022-08-19T12:39:20;100229.38;;;19.25;42.98
36454;BME280;22478;51.740;-1.314;2022-08-19T12:41:47;100229.12;;;18.30;46.30